sensor_id;sensor_type;location;lat;lon;timestamp;pressure;altitude;pressure_sealevel;temperature;humidity
34241;BME280;20503;50.200;19.508;2024-02-26T00:00:06;100247.25;;;7.86;52.02
34241;BME280;20503;50.200;19.508;2024-02-26T00:01:11;100246.72;;;8.03;50.80
34241;BME280;20503;50.200;19.508;2024-02-26T00:02:19;100244.37;;;8.21;50.68
34241;BME280;20503;50.200;19.508;2024-02-26T00:03:20;100244.59;;;8.29;49.56
34241;BME280;20503;50.200;19.508;2024-02-26T00:04:21;100251.32;;;8.24;48.88
34241;BME280;20503;50.200;19.508;2024-02-26T00:05:23;100251.16;;;7.59;51.12
34241;BME280;20503;50.200;19.508;2024-02-26T00:06:51;100255.45;;;7.84;54.19
34241;BME280;20503;50.200;19.508;2024-02-26T00:07:56;100251.68;;;8.30;53.87
34241;BME280;20503;50.200;19.508;2024-02-26T00:08:58;100254.98;;;8.34;52.39
34241;BME280;20503;50.200;19.508;2024-02-26T00:10:00;100248.21;;;8.51;51.15
34241;BME280;20503;50.200;19.508;2024-02-26T00:11:01;100251.02;;;8.60;50.29
34241;BME280;20503;50.200;19.508;2024-02-26T00:12:28;100253.09;;;8.57;49.94
34241;BME280;20503;50.200;19.508;2024-02-26T00:13:29;100244.92;;;8.47;49.89
34241;BME280;20503;50.200;19.508;2024-02-26T00:14:31;100258.20;;;8.60;50.48
34241;BME280;20503;50.200;19.508;2024-02-26T00:15:44;100248.31;;;8.60;50.50
34241;BME280;20503;50.200;19.508;2024-02-26T00:16:46;100234.40;;;8.44;52.31
34241;BME280;20503;50.200;19.508;2024-02-26T00:18:03;100241.38;;;8.47;51.18
34241;BME280;20503;50.200;19.508;2024-02-26T00:19:13;100248.25;;;8.39;51.67
34241;BME280;20503;50.200;19.508;2024-02-26T00:20:14;100237.91;;;8.56;53.55
34241;BME280;20503;50.200;19.508;2024-02-26T00:21:29;100236.21;;;9.38;50.14
34241;BME280;20503;50.200;19.508;2024-02-26T00:22:31;100229.65;;;9.62;49.12
34241;BME280;20503;50.200;19.508;2024-02-26T00:23:32;100228.39;;;9.66;48.00
34241;BME280;20503;50.200;19.508;2024-02-26T00:24:34;100227.66;;;9.64;48.20
34241;BME280;20503;50.200;19.508;2024-02-26T00:25:35;100230.91;;;9.58;47.88
34241;BME280;20503;50.200;19.508;2024-02-26T00:26:38;100236.06;;;9.40;47.29
34241;BME280;20503;50.200;19.508;2024-02-26T00:27:39;100230.08;;;8.85;47.66
34241;BME280;20503;50.200;19.508;2024-02-26T00:28:45;100231.68;;;8.76;48.20
34241;BME280;20503;50.200;19.508;2024-02-26T00:29:46;100231.43;;;8.79;47.94
34241;BME280;20503;50.200;19.508;2024-02-26T00:30:47;100225.13;;;8.69;48.82
34241;BME280;20503;50.200;19.508;2024-02-26T00:31:49;100228.59;;;8.60;48.17
34241;BME280;20503;50.200;19.508;2024-02-26T00:32:50;100223.20;;;8.60;48.33
34241;BME280;20503;50.200;19.508;2024-02-26T00:33:52;100222.74;;;8.55;49.14
34241;BME280;20503;50.200;19.508;2024-02-26T00:34:54;100225.32;;;8.56;49.56
34241;BME280;20503;50.200;19.508;2024-02-26T00:35:55;100223.52;;;8.46;49.77
34241;BME280;20503;50.200;19.508;2024-02-26T00:36:56;100223.91;;;8.41;50.95
34241;BME280;20503;50.200;19.508;2024-02-26T00:37:58;100230.16;;;7.64;52.90
34241;BME280;20503;50.200;19.508;2024-02-26T00:39:02;100219.73;;;7.82;53.37
34241;BME280;20503;50.200;19.508;2024-02-26T00:40:07;100223.56;;;8.23;51.69
34241;BME280;20503;50.200;19.508;2024-02-26T00:41:10;100229.81;;;8.56;50.86
34241;BME280;20503;50.200;19.508;2024-02-26T00:42:13;100224.40;;;8.67;50.32
34241;BME280;20503;50.200;19.508;2024-02-26T00:43:14;100223.20;;;8.60;49.50
34241;BME280;20503;50.200;19.508;2024-02-26T00:44:19;100228.59;;;8.60;49.67
34241;BME280;20503;50.200;19.508;2024-02-26T00:45:49;100233.66;;;8.53;49.53
34241;BME280;20503;50.200;19.508;2024-02-26T00:46:58;100228.87;;;8.57;49.81
34241;BME280;20503;50.200;19.508;2024-02-26T00:47:59;100224.53;;;8.65;50.93
34241;BME280;20503;50.200;19.508;2024-02-26T00:49:08;100218.53;;;8.30;52.10
34241;BME280;20503;50.200;19.508;2024-02-26T00:50:11;100215.52;;;8.55;51.34
34241;BME280;20503;50.200;19.508;2024-02-26T00:51:13;100221.05;;;8.75;50.00
34241;BME280;20503;50.200;19.508;2024-02-26T00:52:16;100223.15;;;8.71;49.55
34241;BME280;20503;50.200;19.508;2024-02-26T00:53:17;100221.68;;;8.46;49.90
34241;BME280;20503;50.200;19.508;2024-02-26T00:54:19;100217.49;;;8.53;51.20
34241;BME280;20503;50.200;19.508;2024-02-26T00:55:21;100216.50;;;8.54;51.06
34241;BME280;20503;50.200;19.508;2024-02-26T00:56:22;100227.63;;;8.18;51.52
34241;BME280;20503;50.200;19.508;2024-02-26T00:57:24;100224.57;;;8.11;52.04
34241;BME280;20503;50.200;19.508;2024-02-26T00:58:26;100222.95;;;8.20;51.33
34241;BME280;20503;50.200;19.508;2024-02-26T00:59:28;100222.53;;;8.47;50.87
34241;BME280;20503;50.200;19.508;2024-02-26T01:00:29;100218.70;;;8.60;51.11
34241;BME280;20503;50.200;19.508;2024-02-26T01:01:32;100220.64;;;8.58;50.97
34241;BME280;20503;50.200;19.508;2024-02-26T01:02:33;100222.98;;;8.52;50.72
34241;BME280;20503;50.200;19.508;2024-02-26T01:03:43;100223.80;;;8.63;51.47
34241;BME280;20503;50.200;19.508;2024-02-26T01:04:45;100217.31;;;8.66;51.79
34241;BME280;20503;50.200;19.508;2024-02-26T01:05:46;100220.90;;;8.55;51.77
34241;BME280;20503;50.200;19.508;2024-02-26T01:06:48;100219.94;;;8.56;52.73
34241;BME280;20503;50.200;19.508;2024-02-26T01:07:49;100218.06;;;8.25;52.60
34241;BME280;20503;50.200;19.508;2024-02-26T01:08:50;100225.98;;;8.70;52.08
34241;BME280;20503;50.200;19.508;2024-02-26T01:10:02;100229.91;;;9.07;51.71
34241;BME280;20503;50.200;19.508;2024-02-26T01:11:04;100232.66;;;9.38;51.00
34241;BME280;20503;50.200;19.508;2024-02-26T01:12:05;100231.93;;;9.36;50.94
34241;BME280;20503;50.200;19.508;2024-02-26T01:13:09;100225.59;;;9.77;49.72
34241;BME280;20503;50.200;19.508;2024-02-26T01:14:10;100218.11;;;10.00;47.45
34241;BME280;20503;50.200;19.508;2024-02-26T01:15:12;100222.54;;;10.01;46.68
34241;BME280;20503;50.200;19.508;2024-02-26T01:16:13;100225.12;;;9.72;47.37
34241;BME280;20503;50.200;19.508;2024-02-26T01:17:14;100224.34;;;9.51;48.24
34241;BME280;20503;50.200;19.508;2024-02-26T01:18:15;100227.16;;;9.19;48.32
34241;BME280;20503;50.200;19.508;2024-02-26T01:19:18;100233.40;;;8.56;52.27
34241;BME280;20503;50.200;19.508;2024-02-26T01:20:21;100229.73;;;8.78;52.11
34241;BME280;20503;50.200;19.508;2024-02-26T01:21:22;100233.87;;;8.82;51.24
34241;BME280;20503;50.200;19.508;2024-02-26T01:22:23;100225.20;;;8.79;52.06
34241;BME280;20503;50.200;19.508;2024-02-26T01:23:25;100221.95;;;9.27;50.71
34241;BME280;20503;50.200;19.508;2024-02-26T01:24:27;100221.73;;;9.70;49.80
34241;BME280;20503;50.200;19.508;2024-02-26T01:25:28;100216.84;;;9.95;49.41
34241;BME280;20503;50.200;19.508;2024-02-26T01:26:39;100221.54;;;10.12;48.04
34241;BME280;20503;50.200;19.508;2024-02-26T01:27:40;100213.66;;;10.30;47.11
34241;BME280;20503;50.200;19.508;2024-02-26T01:28:45;100219.07;;;10.30;47.63
34241;BME280;20503;50.200;19.508;2024-02-26T01:29:47;100210.84;;;9.81;47.11
34241;BME280;20503;50.200;19.508;2024-02-26T01:30:48;100213.96;;;9.46;48.87
34241;BME280;20503;50.200;19.508;2024-02-26T01:31:49;100221.84;;;8.65;51.23
34241;BME280;20503;50.200;19.508;2024-02-26T01:33:10;100221.68;;;8.46;53.36
34241;BME280;20503;50.200;19.508;2024-02-26T01:34:12;100209.30;;;8.97;52.01
34241;BME280;20503;50.200;19.508;2024-02-26T01:35:15;100209.34;;;9.58;50.17
34241;BME280;20503;50.200;19.508;2024-02-26T01:36:16;100210.85;;;9.91;49.11
34241;BME280;20503;50.200;19.508;2024-02-26T01:37:18;100216.21;;;10.31;47.90
34241;BME280;20503;50.200;19.508;2024-02-26T01:38:19;100207.63;;;10.17;47.13
34241;BME280;20503;50.200;19.508;2024-02-26T01:39:21;100210.95;;;9.80;48.04
34241;BME280;20503;50.200;19.508;2024-02-26T01:40:27;100218.24;;;9.49;50.05
34241;BME280;20503;50.200;19.508;2024-02-26T01:41:31;100220.61;;;9.42;50.76
34241;BME280;20503;50.200;19.508;2024-02-26T01:42:33;100222.25;;;9.64;50.92
34241;BME280;20503;50.200;19.508;2024-02-26T01:43:35;100219.63;;;9.83;49.05
34241;BME280;20503;50.200;19.508;2024-02-26T01:44:36;100215.13;;;9.94;48.97
34241;BME280;20503;50.200;19.508;2024-02-26T01:45:39;100214.45;;;10.01;48.17
34241;BME280;20503;50.200;19.508;2024-02-26T01:46:42;100215.41;;;10.00;47.14
34241;BME280;20503;50.200;19.508;2024-02-26T01:47:43;100223.48;;;9.81;47.87
34241;BME280;20503;50.200;19.508;2024-02-26T01:48:45;100226.94;;;9.31;48.18
34241;BME280;20503;50.200;19.508;2024-02-26T01:50:17;100230.78;;;9.08;48.92
34241;BME280;20503;50.200;19.508;2024-02-26T01:51:20;100227.12;;;9.09;48.54
34241;BME280;20503;50.200;19.508;2024-02-26T01:52:24;100221.39;;;9.02;48.65
34241;BME280;20503;50.200;19.508;2024-02-26T01:53:26;100219.46;;;8.72;49.44
34241;BME280;20503;50.200;19.508;2024-02-26T01:54:28;100223.75;;;8.75;49.80
34241;BME280;20503;50.200;19.508;2024-02-26T01:55:32;100214.62;;;8.87;48.95
34241;BME280;20503;50.200;19.508;2024-02-26T01:56:36;100227.69;;;8.92;50.08
34241;BME280;20503;50.200;19.508;2024-02-26T01:57:38;100222.64;;;8.77;50.26
34241;BME280;20503;50.200;19.508;2024-02-26T01:58:42;100222.55;;;8.68;52.25
34241;BME280;20503;50.200;19.508;2024-02-26T01:59:45;100222.89;;;8.95;51.61
34241;BME280;20503;50.200;19.508;2024-02-26T02:00:47;100217.18;;;9.09;51.65
34241;BME280;20503;50.200;19.508;2024-02-26T02:01:54;100227.04;;;8.99;50.40
34241;BME280;20503;50.200;19.508;2024-02-26T02:02:56;100214.24;;;8.38;52.30
34241;BME280;20503;50.200;19.508;2024-02-26T02:03:59;100218.80;;;8.80;51.38
34241;BME280;20503;50.200;19.508;2024-02-26T02:05:03;100220.11;;;9.27;50.25
34241;BME280;20503;50.200;19.508;2024-02-26T02:06:30;100224.75;;;9.46;49.71
34241;BME280;20503;50.200;19.508;2024-02-26T02:07:58;100215.34;;;9.40;49.37
34241;BME280;20503;50.200;19.508;2024-02-26T02:09:01;100218.85;;;9.31;50.28
34241;BME280;20503;50.200;19.508;2024-02-26T02:10:10;100221.32;;;9.13;50.49
34241;BME280;20503;50.200;19.508;2024-02-26T02:11:22;100225.09;;;9.32;50.07
34241;BME280;20503;50.200;19.508;2024-02-26T02:12:24;100209.75;;;9.53;48.81
34241;BME280;20503;50.200;19.508;2024-02-26T02:13:25;100217.42;;;9.58;48.92
34241;BME280;20503;50.200;19.508;2024-02-26T02:14:27;100214.86;;;9.26;49.95
34241;BME280;20503;50.200;19.508;2024-02-26T02:15:28;100219.67;;;9.22;50.54
34241;BME280;20503;50.200;19.508;2024-02-26T02:16:29;100217.01;;;9.32;50.28
34241;BME280;20503;50.200;19.508;2024-02-26T02:17:31;100220.11;;;9.27;49.52
34241;BME280;20503;50.200;19.508;2024-02-26T02:18:33;100219.82;;;9.21;51.03
34241;BME280;20503;50.200;19.508;2024-02-26T02:19:34;100214.62;;;8.87;50.72
34241;BME280;20503;50.200;19.508;2024-02-26T02:20:35;100220.21;;;8.95;50.97
34241;BME280;20503;50.200;19.508;2024-02-26T02:21:38;100222.32;;;9.43;49.75
34241;BME280;20503;50.200;19.508;2024-02-26T02:22:39;100223.57;;;9.39;49.54
34241;BME280;20503;50.200;19.508;2024-02-26T02:23:41;100227.09;;;9.30;49.53
34241;BME280;20503;50.200;19.508;2024-02-26T02:24:49;100215.92;;;8.72;51.44
34241;BME280;20503;50.200;19.508;2024-02-26T02:26:05;100228.13;;;8.55;52.21
34241;BME280;20503;50.200;19.508;2024-02-26T02:27:06;100209.38;;;8.85;51.33
34241;BME280;20503;50.200;19.508;2024-02-26T02:28:07;100211.92;;;8.66;51.37
34241;BME280;20503;50.200;19.508;2024-02-26T02:29:09;100215.86;;;8.83;50.89
34241;BME280;20503;50.200;19.508;2024-02-26T02:30:11;100212.69;;;9.20;50.14
34241;BME280;20503;50.200;19.508;2024-02-26T02:31:14;100222.29;;;9.33;50.03
34241;BME280;20503;50.200;19.508;2024-02-26T02:32:17;100223.05;;;9.45;49.45
34241;BME280;20503;50.200;19.508;2024-02-26T02:33:21;100215.59;;;9.07;49.94
34241;BME280;20503;50.200;19.508;2024-02-26T02:34:25;100218.04;;;9.40;49.53
34241;BME280;20503;50.200;19.508;2024-02-26T02:35:26;100213.20;;;9.65;48.46
34241;BME280;20503;50.200;19.508;2024-02-26T02:36:27;100206.40;;;9.71;48.59
34241;BME280;20503;50.200;19.508;2024-02-26T02:37:29;100215.89;;;9.65;48.63
34241;BME280;20503;50.200;19.508;2024-02-26T02:38:54;100226.38;;;9.58;48.30
34241;BME280;20503;50.200;19.508;2024-02-26T02:39:56;100219.95;;;9.50;47.57
34241;BME280;20503;50.200;19.508;2024-02-26T02:41:00;100216.42;;;9.28;47.22
34241;BME280;20503;50.200;19.508;2024-02-26T02:42:03;100223.23;;;9.02;48.08
34241;BME280;20503;50.200;19.508;2024-02-26T02:43:05;100224.14;;;8.91;48.37
34241;BME280;20503;50.200;19.508;2024-02-26T02:44:22;100224.14;;;8.70;48.81
34241;BME280;20503;50.200;19.508;2024-02-26T02:45:40;100221.39;;;8.60;50.24
34241;BME280;20503;50.200;19.508;2024-02-26T02:46:42;100213.15;;;8.30;51.11
34241;BME280;20503;50.200;19.508;2024-02-26T02:47:44;100213.41;;;7.72;53.37
34241;BME280;20503;50.200;19.508;2024-02-26T02:48:45;100222.20;;;7.74;53.10
34241;BME280;20503;50.200;19.508;2024-02-26T02:49:47;100221.49;;;8.15;52.06
34241;BME280;20503;50.200;19.508;2024-02-26T02:50:48;100219.98;;;8.45;51.65
34241;BME280;20503;50.200;19.508;2024-02-26T02:52:07;100227.02;;;8.57;50.98
34241;BME280;20503;50.200;19.508;2024-02-26T02:53:08;100211.51;;;8.50;50.30
34241;BME280;20503;50.200;19.508;2024-02-26T02:54:11;100213.60;;;8.46;49.98
34241;BME280;20503;50.200;19.508;2024-02-26T02:55:12;100214.59;;;8.45;49.19
34241;BME280;20503;50.200;19.508;2024-02-26T02:56:14;100216.16;;;8.48;49.61
34241;BME280;20503;50.200;19.508;2024-02-26T02:57:15;100214.98;;;8.40;49.96
34241;BME280;20503;50.200;19.508;2024-02-26T02:58:16;100218.24;;;8.44;50.52
34241;BME280;20503;50.200;19.508;2024-02-26T02:59:18;100217.93;;;8.26;49.51
34241;BME280;20503;50.200;19.508;2024-02-26T03:00:20;100226.24;;;8.23;50.56
34241;BME280;20503;50.200;19.508;2024-02-26T03:01:23;100223.57;;;8.12;50.47
34241;BME280;20503;50.200;19.508;2024-02-26T03:02:24;100229.17;;;7.88;50.60
34241;BME280;20503;50.200;19.508;2024-02-26T03:03:26;100227.95;;;7.70;50.73
34241;BME280;20503;50.200;19.508;2024-02-26T03:04:29;100227.34;;;7.66;50.90
34241;BME280;20503;50.200;19.508;2024-02-26T03:05:30;100237.32;;;6.97;52.16
34241;BME280;20503;50.200;19.508;2024-02-26T03:06:31;100236.16;;;6.77;53.32
34241;BME280;20503;50.200;19.508;2024-02-26T03:07:33;100233.33;;;6.43;55.16
34241;BME280;20503;50.200;19.508;2024-02-26T03:08:35;100237.54;;;6.23;55.98
34241;BME280;20503;50.200;19.508;2024-02-26T03:09:40;100229.80;;;6.18;56.48
34241;BME280;20503;50.200;19.508;2024-02-26T03:10:42;100227.12;;;6.78;53.90
34241;BME280;20503;50.200;19.508;2024-02-26T03:11:45;100223.90;;;7.19;53.58
34241;BME280;20503;50.200;19.508;2024-02-26T03:12:47;100221.98;;;7.32;52.95
34241;BME280;20503;50.200;19.508;2024-02-26T03:13:48;100223.54;;;7.35;51.47
34241;BME280;20503;50.200;19.508;2024-02-26T03:14:49;100225.38;;;7.34;52.09
34241;BME280;20503;50.200;19.508;2024-02-26T03:15:50;100225.52;;;7.33;52.85
34241;BME280;20503;50.200;19.508;2024-02-26T03:16:54;100213.66;;;7.47;51.87
34241;BME280;20503;50.200;19.508;2024-02-26T03:18:15;100226.62;;;7.41;52.07
34241;BME280;20503;50.200;19.508;2024-02-26T03:19:46;100220.88;;;7.46;51.91
34241;BME280;20503;50.200;19.508;2024-02-26T03:20:48;100214.64;;;7.57;51.59
34241;BME280;20503;50.200;19.508;2024-02-26T03:21:51;100214.02;;;7.53;51.82
34241;BME280;20503;50.200;19.508;2024-02-26T03:22:52;100207.43;;;7.46;51.68
34241;BME280;20503;50.200;19.508;2024-02-26T03:23:53;100214.40;;;7.49;52.76
34241;BME280;20503;50.200;19.508;2024-02-26T03:24:55;100207.42;;;7.35;51.41
34241;BME280;20503;50.200;19.508;2024-02-26T03:25:56;100211.93;;;7.23;51.67
34241;BME280;20503;50.200;19.508;2024-02-26T03:26:57;100211.95;;;7.34;51.44
34241;BME280;20503;50.200;19.508;2024-02-26T03:27:59;100202.66;;;7.38;51.61
34241;BME280;20503;50.200;19.508;2024-02-26T03:29:00;100198.76;;;7.42;50.42
34241;BME280;20503;50.200;19.508;2024-02-26T03:30:06;100208.38;;;7.11;52.52
34241;BME280;20503;50.200;19.508;2024-02-26T03:31:07;100207.52;;;7.11;52.59
34241;BME280;20503;50.200;19.508;2024-02-26T03:32:35;100207.69;;;7.21;53.15
34241;BME280;20503;50.200;19.508;2024-02-26T03:33:36;100204.85;;;7.22;54.05
34241;BME280;20503;50.200;19.508;2024-02-26T03:34:38;100208.04;;;7.61;52.46
34241;BME280;20503;50.200;19.508;2024-02-26T03:35:42;100203.38;;;7.63;55.06
34241;BME280;20503;50.200;19.508;2024-02-26T03:36:44;100205.66;;;7.90;54.45
34241;BME280;20503;50.200;19.508;2024-02-26T03:37:46;100202.87;;;8.24;51.02
34241;BME280;20503;50.200;19.508;2024-02-26T03:38:48;100197.80;;;8.09;50.40
34241;BME280;20503;50.200;19.508;2024-02-26T03:39:49;100200.13;;;8.03;50.31
34241;BME280;20503;50.200;19.508;2024-02-26T03:40:51;100199.66;;;7.98;50.80
34241;BME280;20503;50.200;19.508;2024-02-26T03:41:52;100201.19;;;7.68;49.75
34241;BME280;20503;50.200;19.508;2024-02-26T03:42:55;100202.52;;;7.62;50.25
34241;BME280;20503;50.200;19.508;2024-02-26T03:43:58;100202.05;;;7.46;50.64
34241;BME280;20503;50.200;19.508;2024-02-26T03:45:00;100191.91;;;7.27;51.04
34241;BME280;20503;50.200;19.508;2024-02-26T03:46:01;100195.45;;;7.39;51.02
34241;BME280;20503;50.200;19.508;2024-02-26T03:47:03;100194.73;;;7.48;50.60
34241;BME280;20503;50.200;19.508;2024-02-26T03:48:06;100189.22;;;7.50;51.08
34241;BME280;20503;50.200;19.508;2024-02-26T03:49:07;100186.29;;;7.30;50.71
34241;BME280;20503;50.200;19.508;2024-02-26T03:50:09;100187.38;;;7.39;50.69
34241;BME280;20503;50.200;19.508;2024-02-26T03:51:10;100188.75;;;7.33;51.35
34241;BME280;20503;50.200;19.508;2024-02-26T03:52:12;100184.11;;;7.24;50.96
34241;BME280;20503;50.200;19.508;2024-02-26T03:53:14;100185.40;;;6.85;57.19
34241;BME280;20503;50.200;19.508;2024-02-26T03:54:21;100186.19;;;7.32;56.64
34241;BME280;20503;50.200;19.508;2024-02-26T03:55:23;100180.15;;;7.84;54.21
34241;BME280;20503;50.200;19.508;2024-02-26T03:56:51;100154.31;;;7.93;51.21
34241;BME280;20503;50.200;19.508;2024-02-26T03:57:52;100173.77;;;7.85;54.40
34241;BME280;20503;50.200;19.508;2024-02-26T03:58:54;100173.41;;;8.22;54.51
34241;BME280;20503;50.200;19.508;2024-02-26T03:59:56;100173.91;;;8.16;54.39
34241;BME280;20503;50.200;19.508;2024-02-26T04:01:00;100172.32;;;8.57;52.64
34241;BME280;20503;50.200;19.508;2024-02-26T04:02:02;100172.96;;;8.49;54.38
34241;BME280;20503;50.200;19.508;2024-02-26T04:03:12;100173.11;;;8.69;53.68
34241;BME280;20503;50.200;19.508;2024-02-26T04:04:13;100175.18;;;9.37;51.74
34241;BME280;20503;50.200;19.508;2024-02-26T04:05:14;100163.24;;;9.80;48.87
34241;BME280;20503;50.200;19.508;2024-02-26T04:06:16;100163.70;;;10.05;48.95
34241;BME280;20503;50.200;19.508;2024-02-26T04:07:22;100163.86;;;9.94;49.22
34241;BME280;20503;50.200;19.508;2024-02-26T04:08:23;100162.38;;;9.70;49.52
34241;BME280;20503;50.200;19.508;2024-02-26T04:09:24;100152.22;;;9.93;48.32
34241;BME280;20503;50.200;19.508;2024-02-26T04:10:25;100159.73;;;9.99;48.39
34241;BME280;20503;50.200;19.508;2024-02-26T04:11:27;100159.00;;;9.87;47.74
34241;BME280;20503;50.200;19.508;2024-02-26T04:12:29;100165.78;;;9.72;47.95
34241;BME280;20503;50.200;19.508;2024-02-26T04:13:31;100170.50;;;9.39;48.70
34241;BME280;20503;50.200;19.508;2024-02-26T04:14:33;100166.03;;;9.59;49.03
34241;BME280;20503;50.200;19.508;2024-02-26T04:15:34;100163.90;;;9.53;47.03
34241;BME280;20503;50.200;19.508;2024-02-26T04:16:35;100173.42;;;9.27;47.27
34241;BME280;20503;50.200;19.508;2024-02-26T04:17:38;100168.30;;;9.24;47.96
34241;BME280;20503;50.200;19.508;2024-02-26T04:18:39;100171.19;;;8.80;47.51
34241;BME280;20503;50.200;19.508;2024-02-26T04:19:40;100163.90;;;8.50;47.68
34241;BME280;20503;50.200;19.508;2024-02-26T04:20:42;100170.44;;;8.36;49.00
34241;BME280;20503;50.200;19.508;2024-02-26T04:21:59;100174.68;;;8.07;49.64
34241;BME280;20503;50.200;19.508;2024-02-26T04:23:27;100170.49;;;7.71;50.04
34241;BME280;20503;50.200;19.508;2024-02-26T04:24:28;100165.95;;;7.82;51.27
34241;BME280;20503;50.200;19.508;2024-02-26T04:25:29;100166.19;;;7.79;51.07
34241;BME280;20503;50.200;19.508;2024-02-26T04:26:31;100162.20;;;7.51;50.78
34241;BME280;20503;50.200;19.508;2024-02-26T04:27:33;100162.11;;;7.53;50.67
34241;BME280;20503;50.200;19.508;2024-02-26T04:28:36;100162.98;;;7.20;50.50
34241;BME280;20503;50.200;19.508;2024-02-26T04:29:38;100158.69;;;7.06;52.25
34241;BME280;20503;50.200;19.508;2024-02-26T04:30:39;100119.60;;;6.68;52.47
34241;BME280;20503;50.200;19.508;2024-02-26T04:31:41;100159.78;;;7.14;51.76
34241;BME280;20503;50.200;19.508;2024-02-26T04:32:43;100159.78;;;7.14;50.71
34241;BME280;20503;50.200;19.508;2024-02-26T04:33:45;100159.41;;;7.19;51.29
34241;BME280;20503;50.200;19.508;2024-02-26T04:34:46;100155.39;;;7.02;51.04
34241;BME280;20503;50.200;19.508;2024-02-26T04:35:47;100159.54;;;6.84;52.06
34241;BME280;20503;50.200;19.508;2024-02-26T04:36:49;100154.78;;;6.87;51.36
34241;BME280;20503;50.200;19.508;2024-02-26T04:37:50;100166.87;;;6.93;52.88
34241;BME280;20503;50.200;19.508;2024-02-26T04:38:51;100167.71;;;6.93;51.14
34241;BME280;20503;50.200;19.508;2024-02-26T04:40:00;100158.19;;;6.89;50.57
34241;BME280;20503;50.200;19.508;2024-02-26T04:41:11;100168.67;;;6.81;51.39
34241;BME280;20503;50.200;19.508;2024-02-26T04:42:13;100157.38;;;6.54;52.55
34241;BME280;20503;50.200;19.508;2024-02-26T04:43:15;100162.55;;;6.68;53.68
34241;BME280;20503;50.200;19.508;2024-02-26T04:44:19;100164.55;;;6.88;53.29
34241;BME280;20503;50.200;19.508;2024-02-26T04:45:20;100149.40;;;7.10;52.90
34241;BME280;20503;50.200;19.508;2024-02-26T04:46:21;100153.34;;;7.28;52.21
34241;BME280;20503;50.200;19.508;2024-02-26T04:47:23;100150.74;;;7.38;51.89
34241;BME280;20503;50.200;19.508;2024-02-26T04:48:24;100145.74;;;7.22;51.22
34241;BME280;20503;50.200;19.508;2024-02-26T04:49:25;100150.40;;;7.09;51.94
34241;BME280;20503;50.200;19.508;2024-02-26T04:50:27;100154.66;;;7.00;53.36
34241;BME280;20503;50.200;19.508;2024-02-26T04:51:28;100152.95;;;7.22;52.41
34241;BME280;20503;50.200;19.508;2024-02-26T04:52:30;100156.25;;;7.36;52.23
34241;BME280;20503;50.200;19.508;2024-02-26T04:53:31;100150.98;;;7.35;52.25
34241;BME280;20503;50.200;19.508;2024-02-26T04:54:33;100146.22;;;7.50;51.45
34241;BME280;20503;50.200;19.508;2024-02-26T04:55:34;100144.27;;;7.52;52.61
34241;BME280;20503;50.200;19.508;2024-02-26T04:56:35;100154.02;;;7.64;51.33
34241;BME280;20503;50.200;19.508;2024-02-26T04:57:37;100150.40;;;7.09;53.01
34241;BME280;20503;50.200;19.508;2024-02-26T04:58:38;100145.50;;;7.25;53.51
34241;BME280;20503;50.200;19.508;2024-02-26T04:59:40;100152.82;;;6.89;53.36
34241;BME280;20503;50.200;19.508;2024-02-26T05:00:44;100147.58;;;7.10;55.50
34241;BME280;20503;50.200;19.508;2024-02-26T05:01:46;100140.61;;;7.30;54.75
34241;BME280;20503;50.200;19.508;2024-02-26T05:02:47;100145.22;;;7.51;54.26
34241;BME280;20503;50.200;19.508;2024-02-26T05:03:49;100143.98;;;7.66;53.36
34241;BME280;20503;50.200;19.508;2024-02-26T05:04:50;100139.13;;;7.60;55.48
34241;BME280;20503;50.200;19.508;2024-02-26T05:05:52;100142.15;;;7.66;55.64
34241;BME280;20503;50.200;19.508;2024-02-26T05:06:53;100137.95;;;7.85;54.72
34241;BME280;20503;50.200;19.508;2024-02-26T05:07:55;100143.59;;;8.14;52.79
34241;BME280;20503;50.200;19.508;2024-02-26T05:08:56;100146.08;;;8.06;53.42
34241;BME280;20503;50.200;19.508;2024-02-26T05:09:58;100141.54;;;7.63;54.55
34241;BME280;20503;50.200;19.508;2024-02-26T05:11:01;100143.27;;;7.64;54.38
34241;BME280;20503;50.200;19.508;2024-02-26T05:12:04;100143.73;;;7.80;53.51
34241;BME280;20503;50.200;19.508;2024-02-26T05:13:07;100145.86;;;7.98;52.50
34241;BME280;20503;50.200;19.508;2024-02-26T05:14:09;100146.25;;;7.93;51.90
34241;BME280;20503;50.200;19.508;2024-02-26T05:15:14;100142.75;;;7.70;51.61
34241;BME280;20503;50.200;19.508;2024-02-26T05:16:19;100140.00;;;7.38;52.52
34241;BME280;20503;50.200;19.508;2024-02-26T05:17:25;100133.52;;;7.40;54.71
34241;BME280;20503;50.200;19.508;2024-02-26T05:18:28;100139.22;;;7.70;52.81
34241;BME280;20503;50.200;19.508;2024-02-26T05:19:48;100155.95;;;7.73;52.01
34241;BME280;20503;50.200;19.508;2024-02-26T05:20:49;100153.30;;;7.39;51.36
34241;BME280;20503;50.200;19.508;2024-02-26T05:21:50;100152.68;;;7.47;51.81
34241;BME280;20503;50.200;19.508;2024-02-26T05:22:57;100156.13;;;7.38;51.93
34241;BME280;20503;50.200;19.508;2024-02-26T05:24:15;100163.80;;;7.42;51.87
34241;BME280;20503;50.200;19.508;2024-02-26T05:25:18;100147.45;;;7.34;52.28
34241;BME280;20503;50.200;19.508;2024-02-26T05:26:22;100152.82;;;7.34;52.45
34241;BME280;20503;50.200;19.508;2024-02-26T05:27:24;100157.10;;;7.26;53.60
34241;BME280;20503;50.200;19.508;2024-02-26T05:28:26;100155.98;;;7.39;53.39
34241;BME280;20503;50.200;19.508;2024-02-26T05:29:27;100156.59;;;7.54;53.57
34241;BME280;20503;50.200;19.508;2024-02-26T05:30:43;100161.48;;;7.60;53.89
34241;BME280;20503;50.200;19.508;2024-02-26T05:31:44;100159.11;;;7.78;52.82
34241;BME280;20503;50.200;19.508;2024-02-26T05:32:46;100155.44;;;7.79;52.88
34241;BME280;20503;50.200;19.508;2024-02-26T05:34:11;100160.51;;;7.50;51.79